ACA126 CYVR-CYYZ
Flight info
| Callsign | ACA126 |
|---|---|
| Flight time | 4h 25m |
| Altitude | 35000 |
| Route | ALNOD DCT IKNIX DCT BEVEL DCT 4930N10000W DCT AGLIN DCT OTNIK BOXUM7 |
| Aircraft | A320/M-SDE3FGHIRWY/LB1 |
Departure
| Time | 2026-05-08 03:26 |
|---|---|
| Airport | Vancouver International Airport (CYVR) |
Arrival
| Time | 2026-05-08 07:51 |
|---|---|
| Airport | Toronto Pearson International Airport (CYYZ) |
| Time | Latitude | Longitude | Altitude | Speed | Heading |
|---|---|---|---|---|---|
| 2026-05-08 02:51 | 49.19641 | -123.18505 | 23 ft | 0 kts | 189° |
| 2026-05-08 03:08 | 49.19658 | -123.18501 | 27 ft | 2 kts | 189° |
| 2026-05-08 03:08 | 49.19675 | -123.18494 | 26 ft | 3 kts | 207° |
| 2026-05-08 03:08 | 49.19689 | -123.18478 | 24 ft | 3 kts | 232° |
| 2026-05-08 03:08 | 49.19697 | -123.18454 | 25 ft | 3 kts | 269° |
| 2026-05-08 03:09 | 49.19696 | -123.18439 | 25 ft | 0 kts | 278° |
| 2026-05-08 03:13 | 49.19697 | -123.18440 | 25 ft | 1 kts | 278° |
| 2026-05-08 03:13 | 49.19701 | -123.18469 | 31 ft | 6 kts | 282° |
| 2026-05-08 03:13 | 49.19719 | -123.18555 | 27 ft | 11 kts | 296° |
| 2026-05-08 03:13 | 49.19746 | -123.18690 | 25 ft | 16 kts | 279° |
| 2026-05-08 03:14 | 49.19771 | -123.18871 | 26 ft | 14 kts | 282° |
| 2026-05-08 03:14 | 49.19786 | -123.19000 | 26 ft | 11 kts | 281° |
| 2026-05-08 03:14 | 49.19768 | -123.19107 | 26 ft | 12 kts | 209° |
| 2026-05-08 03:14 | 49.19681 | -123.19145 | 23 ft | 15 kts | 190° |
| 2026-05-08 03:15 | 49.19572 | -123.19162 | 25 ft | 17 kts | 168° |
| 2026-05-08 03:15 | 49.19497 | -123.19092 | 26 ft | 14 kts | 142° |
| 2026-05-08 03:15 | 49.19416 | -123.18996 | 25 ft | 15 kts | 142° |
| 2026-05-08 03:15 | 49.19325 | -123.18892 | 23 ft | 18 kts | 143° |
| 2026-05-08 03:16 | 49.19229 | -123.18782 | 23 ft | 17 kts | 142° |
| 2026-05-08 03:16 | 49.19128 | -123.18662 | 23 ft | 20 kts | 143° |
| 2026-05-08 03:16 | 49.19015 | -123.18530 | 26 ft | 19 kts | 142° |
| 2026-05-08 03:16 | 49.18942 | -123.18368 | 23 ft | 20 kts | 98° |
| 2026-05-08 03:17 | 49.18916 | -123.18146 | 25 ft | 22 kts | 99° |
| 2026-05-08 03:17 | 49.18893 | -123.17931 | 25 ft | 22 kts | 99° |
| 2026-05-08 03:17 | 49.18867 | -123.17687 | 23 ft | 25 kts | 99° |
| 2026-05-08 03:17 | 49.18837 | -123.17416 | 24 ft | 27 kts | 101° |
| 2026-05-08 03:18 | 49.18802 | -123.17122 | 24 ft | 29 kts | 101° |
| 2026-05-08 03:18 | 49.18775 | -123.16876 | 24 ft | 18 kts | 99° |
| 2026-05-08 03:18 | 49.18752 | -123.16672 | 23 ft | 21 kts | 99° |
| 2026-05-08 03:18 | 49.18740 | -123.16566 | 23 ft | 7 kts | 99° |
| 2026-05-08 03:19 | 49.18731 | -123.16478 | 26 ft | 10 kts | 99° |
| 2026-05-08 03:19 | 49.18716 | -123.16354 | 26 ft | 13 kts | 103° |
| 2026-05-08 03:19 | 49.18666 | -123.16235 | 24 ft | 14 kts | 135° |
| 2026-05-08 03:19 | 49.18612 | -123.16196 | 24 ft | 3 kts | 184° |
| 2026-05-08 03:20 | 49.18610 | -123.16196 | 24 ft | 0 kts | 185° |
| 2026-05-08 03:23 | 49.18603 | -123.16197 | 25 ft | 4 kts | 186° |
| 2026-05-08 03:23 | 49.18559 | -123.16207 | 27 ft | 9 kts | 188° |
| 2026-05-08 03:24 | 49.18498 | -123.16278 | 23 ft | 13 kts | 256° |
| 2026-05-08 03:24 | 49.18499 | -123.16311 | 25 ft | 0 kts | 279° |
| 2026-05-08 03:24 | 49.18500 | -123.16323 | 25 ft | 7 kts | 279° |
| 2026-05-08 03:25 | 49.18550 | -123.16759 | 23 ft | 78 kts | 280° |
| 2026-05-08 03:25 | 49.18678 | -123.17881 | 26 ft | 134 kts | 279° |
| 2026-05-08 03:25 | 49.18861 | -123.19527 | 85 ft | 174 kts | 277° |
| 2026-05-08 03:25 | 49.19060 | -123.21390 | 597 ft | 181 kts | 276° |
| 2026-05-08 03:26 | 49.19182 | -123.23306 | 1281 ft | 181 kts | 263° |
| 2026-05-08 03:26 | 49.19032 | -123.25279 | 1727 ft | 194 kts | 260° |
| 2026-05-08 03:26 | 49.18823 | -123.27398 | 2102 ft | 210 kts | 259° |
| 2026-05-08 03:26 | 49.18584 | -123.29702 | 2457 ft | 229 kts | 260° |
| 2026-05-08 03:27 | 49.18334 | -123.32199 | 2918 ft | 246 kts | 261° |
| 2026-05-08 03:27 | 49.18080 | -123.34871 | 3446 ft | 261 kts | 262° |
| 2026-05-08 03:27 | 49.17826 | -123.37651 | 4225 ft | 266 kts | 262° |
| 2026-05-08 03:27 | 49.17575 | -123.40466 | 5071 ft | 268 kts | 262° |
| 2026-05-08 03:28 | 49.17324 | -123.43309 | 5852 ft | 272 kts | 262° |
| 2026-05-08 03:28 | 49.17068 | -123.46206 | 6604 ft | 277 kts | 261° |
| 2026-05-08 03:28 | 49.16809 | -123.49143 | 7331 ft | 281 kts | 261° |
| 2026-05-08 03:28 | 49.16386 | -123.52056 | 8087 ft | 281 kts | 245° |
| 2026-05-08 03:29 | 49.15312 | -123.54517 | 8854 ft | 280 kts | 222° |
| 2026-05-08 03:29 | 49.13681 | -123.56112 | 9590 ft | 281 kts | 199° |
| 2026-05-08 03:29 | 49.11751 | -123.56556 | 10273 ft | 284 kts | 175° |
| 2026-05-08 03:29 | 49.09848 | -123.55751 | 10908 ft | 288 kts | 152° |
| 2026-05-08 03:30 | 49.07376 | -123.50824 | 11721 ft | 318 kts | 101° |
| 2026-05-08 03:30 | 49.07238 | -123.43732 | 12336 ft | 351 kts | 91° |
| 2026-05-08 03:31 | 49.07240 | -123.36128 | 13438 ft | 363 kts | 91° |
| 2026-05-08 03:31 | 49.07215 | -123.28344 | 14591 ft | 371 kts | 91° |
| 2026-05-08 03:32 | 49.07194 | -123.24395 | 15134 ft | 374 kts | 91° |
| 2026-05-08 03:32 | 49.07169 | -123.20410 | 15674 ft | 378 kts | 92° |
| 2026-05-08 03:32 | 49.07140 | -123.16393 | 16210 ft | 381 kts | 92° |
| 2026-05-08 03:32 | 49.07110 | -123.12393 | 16734 ft | 385 kts | 92° |
| 2026-05-08 03:33 | 49.07078 | -123.08288 | 17260 ft | 388 kts | 92° |
| 2026-05-08 03:33 | 49.07047 | -123.04164 | 17795 ft | 391 kts | 92° |
| 2026-05-08 03:33 | 49.07017 | -122.99996 | 18320 ft | 395 kts | 92° |
| 2026-05-08 03:33 | 49.06984 | -122.95789 | 18770 ft | 398 kts | 92° |
| 2026-05-08 03:34 | 49.06947 | -122.91541 | 19212 ft | 402 kts | 92° |
| 2026-05-08 03:34 | 49.06905 | -122.87256 | 19653 ft | 406 kts | 92° |
| 2026-05-08 03:34 | 49.06859 | -122.82938 | 20090 ft | 410 kts | 92° |
| 2026-05-08 03:34 | 49.06812 | -122.78576 | 20532 ft | 413 kts | 92° |
| 2026-05-08 03:35 | 49.06766 | -122.74170 | 20974 ft | 417 kts | 92° |
| 2026-05-08 03:35 | 49.06719 | -122.69730 | 21402 ft | 421 kts | 92° |
| 2026-05-08 03:35 | 49.06670 | -122.65249 | 21830 ft | 425 kts | 92° |
| 2026-05-08 03:35 | 49.06619 | -122.60719 | 22245 ft | 428 kts | 91° |
| 2026-05-08 03:36 | 49.06565 | -122.56165 | 22652 ft | 432 kts | 91° |
| 2026-05-08 03:36 | 49.06510 | -122.51572 | 23055 ft | 435 kts | 91° |
| 2026-05-08 03:36 | 49.06453 | -122.46942 | 23442 ft | 439 kts | 91° |
| 2026-05-08 03:36 | 49.06391 | -122.42275 | 23796 ft | 442 kts | 91° |
| 2026-05-08 03:37 | 49.06325 | -122.37574 | 24116 ft | 445 kts | 91° |
| 2026-05-08 03:37 | 49.06256 | -122.32842 | 24436 ft | 447 kts | 91° |
| 2026-05-08 03:37 | 49.06188 | -122.28091 | 24749 ft | 450 kts | 91° |
| 2026-05-08 03:37 | 49.06119 | -122.23309 | 25058 ft | 452 kts | 91° |
| 2026-05-08 03:38 | 49.06047 | -122.18511 | 25358 ft | 455 kts | 91° |
| 2026-05-08 03:38 | 49.05973 | -122.13675 | 25646 ft | 457 kts | 91° |
| 2026-05-08 03:38 | 49.05897 | -122.08819 | 25937 ft | 459 kts | 91° |
| 2026-05-08 03:38 | 49.05819 | -122.03937 | 26235 ft | 462 kts | 91° |
| 2026-05-08 03:39 | 49.05738 | -121.99034 | 26516 ft | 464 kts | 91° |
| 2026-05-08 03:39 | 49.05653 | -121.94107 | 26786 ft | 466 kts | 91° |
| 2026-05-08 03:39 | 49.05594 | -121.90755 | 26990 ft | 468 kts | 91° |
| 2026-05-08 03:39 | 49.05506 | -121.85791 | 27270 ft | 470 kts | 91° |
| 2026-05-08 03:40 | 49.05417 | -121.80864 | 27489 ft | 472 kts | 91° |
| 2026-05-08 03:40 | 49.05322 | -121.75842 | 27752 ft | 475 kts | 91° |
| 2026-05-08 03:40 | 49.05220 | -121.70804 | 28006 ft | 477 kts | 91° |
| 2026-05-08 03:40 | 49.05184 | -121.65741 | 28252 ft | 478 kts | 86° |
| 2026-05-08 03:41 | 49.05547 | -121.60696 | 28515 ft | 480 kts | 80° |
| 2026-05-08 03:41 | 49.06022 | -121.55656 | 28689 ft | 482 kts | 80° |
| 2026-05-08 03:41 | 49.06496 | -121.50594 | 28914 ft | 484 kts | 80° |
| 2026-05-08 03:41 | 49.06965 | -121.45510 | 29141 ft | 485 kts | 81° |
| 2026-05-08 03:42 | 49.07429 | -121.40399 | 29343 ft | 488 kts | 81° |
| 2026-05-08 03:42 | 49.07892 | -121.35269 | 29565 ft | 489 kts | 81° |
| 2026-05-08 03:42 | 49.08354 | -121.30121 | 29771 ft | 491 kts | 81° |
| 2026-05-08 03:42 | 49.08816 | -121.24948 | 29948 ft | 492 kts | 80° |
| 2026-05-08 03:43 | 49.09274 | -121.19771 | 30128 ft | 494 kts | 80° |
| 2026-05-08 03:43 | 49.09735 | -121.14562 | 30285 ft | 495 kts | 80° |
| 2026-05-08 03:43 | 49.10194 | -121.09351 | 30432 ft | 496 kts | 80° |
| 2026-05-08 03:43 | 49.10652 | -121.04134 | 30670 ft | 496 kts | 80° |
| 2026-05-08 03:44 | 49.11109 | -120.98925 | 30920 ft | 495 kts | 80° |
| 2026-05-08 03:44 | 49.11563 | -120.93725 | 31152 ft | 494 kts | 80° |
| 2026-05-08 03:44 | 49.12012 | -120.88520 | 31394 ft | 494 kts | 80° |
| 2026-05-08 03:44 | 49.12457 | -120.83327 | 31612 ft | 494 kts | 80° |
| 2026-05-08 03:45 | 49.12901 | -120.78136 | 31833 ft | 493 kts | 80° |
| 2026-05-08 03:45 | 49.13346 | -120.72940 | 32053 ft | 493 kts | 80° |
| 2026-05-08 03:45 | 49.13788 | -120.67756 | 32244 ft | 493 kts | 80° |
| 2026-05-08 03:45 | 49.14225 | -120.62559 | 32445 ft | 493 kts | 80° |
| 2026-05-08 03:46 | 49.14656 | -120.57365 | 32664 ft | 493 kts | 80° |
| 2026-05-08 03:46 | 49.15080 | -120.52178 | 32893 ft | 493 kts | 80° |
| 2026-05-08 03:46 | 49.15502 | -120.46989 | 33113 ft | 492 kts | 80° |
| 2026-05-08 03:46 | 49.15924 | -120.41799 | 33322 ft | 493 kts | 80° |
| 2026-05-08 03:47 | 49.16348 | -120.36606 | 33524 ft | 493 kts | 80° |
| 2026-05-08 03:47 | 49.16771 | -120.31407 | 33729 ft | 493 kts | 80° |
| 2026-05-08 03:47 | 49.17193 | -120.26208 | 33909 ft | 493 kts | 79° |
| 2026-05-08 03:47 | 49.17614 | -120.21004 | 34086 ft | 493 kts | 79° |
| 2026-05-08 03:48 | 49.18032 | -120.15801 | 34256 ft | 493 kts | 79° |
| 2026-05-08 03:48 | 49.18443 | -120.10598 | 34428 ft | 493 kts | 79° |
| 2026-05-08 03:48 | 49.18851 | -120.05395 | 34599 ft | 493 kts | 79° |
| 2026-05-08 03:48 | 49.19257 | -120.00195 | 34749 ft | 492 kts | 79° |
| 2026-05-08 03:49 | 49.19661 | -119.94998 | 34886 ft | 493 kts | 79° |
| 2026-05-08 03:49 | 49.20463 | -119.84636 | 34914 ft | 490 kts | 79° |
| 2026-05-08 03:50 | 49.21255 | -119.74292 | 34903 ft | 489 kts | 79° |
| 2026-05-08 03:50 | 49.22037 | -119.63949 | 34904 ft | 489 kts | 79° |
| 2026-05-08 03:51 | 49.22809 | -119.53615 | 34904 ft | 489 kts | 79° |
| 2026-05-08 03:51 | 49.23564 | -119.43282 | 34913 ft | 489 kts | 80° |
| 2026-05-08 03:52 | 49.24312 | -119.32950 | 34925 ft | 489 kts | 80° |
| 2026-05-08 03:52 | 49.25049 | -119.22619 | 34938 ft | 488 kts | 80° |
| 2026-05-08 03:53 | 49.25757 | -119.12303 | 34947 ft | 487 kts | 80° |
| 2026-05-08 03:53 | 49.26429 | -119.01971 | 34944 ft | 488 kts | 80° |
| 2026-05-08 03:54 | 49.27089 | -118.91655 | 34948 ft | 486 kts | 80° |
| 2026-05-08 03:54 | 49.27747 | -118.81354 | 34952 ft | 486 kts | 80° |
| 2026-05-08 03:55 | 49.28398 | -118.71057 | 34945 ft | 486 kts | 80° |
| 2026-05-08 03:55 | 49.29041 | -118.60734 | 34940 ft | 487 kts | 80° |
| 2026-05-08 03:56 | 49.29673 | -118.50414 | 34953 ft | 487 kts | 80° |
| 2026-05-08 03:56 | 49.30294 | -118.40076 | 34943 ft | 487 kts | 80° |
| 2026-05-08 03:57 | 49.30907 | -118.29742 | 34950 ft | 487 kts | 80° |
| 2026-05-08 03:57 | 49.31520 | -118.19411 | 34939 ft | 486 kts | 80° |
| 2026-05-08 03:58 | 49.32117 | -118.09092 | 34931 ft | 488 kts | 80° |
| 2026-05-08 03:58 | 49.32705 | -117.98718 | 34929 ft | 488 kts | 80° |
| 2026-05-08 03:59 | 49.33289 | -117.88345 | 34928 ft | 489 kts | 80° |
| 2026-05-08 03:59 | 49.33856 | -117.77963 | 34934 ft | 489 kts | 80° |
| 2026-05-08 04:00 | 49.34410 | -117.67564 | 34941 ft | 489 kts | 80° |
| 2026-05-08 04:00 | 49.34961 | -117.57169 | 34943 ft | 489 kts | 80° |
| 2026-05-08 04:01 | 49.35511 | -117.46766 | 34926 ft | 489 kts | 80° |
| 2026-05-08 04:01 | 49.36048 | -117.36356 | 34932 ft | 490 kts | 80° |
| 2026-05-08 04:02 | 49.36563 | -117.25946 | 34931 ft | 490 kts | 80° |
| 2026-05-08 04:02 | 49.37078 | -117.15537 | 34933 ft | 489 kts | 80° |
| 2026-05-08 04:03 | 49.37586 | -117.05129 | 34945 ft | 489 kts | 79° |
| 2026-05-08 04:03 | 49.38336 | -116.89494 | 34946 ft | 491 kts | 79° |
| 2026-05-08 04:04 | 49.38820 | -116.79075 | 34947 ft | 490 kts | 79° |
| 2026-05-08 04:04 | 49.39290 | -116.68641 | 34949 ft | 491 kts | 80° |
| 2026-05-08 04:05 | 49.39752 | -116.58185 | 34956 ft | 490 kts | 79° |
| 2026-05-08 04:05 | 49.40208 | -116.47724 | 34960 ft | 491 kts | 79° |
| 2026-05-08 04:06 | 49.40658 | -116.37259 | 34974 ft | 491 kts | 79° |
| 2026-05-08 04:06 | 49.41096 | -116.26801 | 34974 ft | 491 kts | 80° |
| 2026-05-08 04:07 | 49.41530 | -116.16302 | 34952 ft | 494 kts | 79° |
| 2026-05-08 04:07 | 49.41944 | -116.05797 | 34974 ft | 492 kts | 79° |
| 2026-05-08 04:08 | 49.42346 | -115.95316 | 34965 ft | 492 kts | 79° |
| 2026-05-08 04:08 | 49.42746 | -115.84836 | 34971 ft | 491 kts | 79° |
| 2026-05-08 04:09 | 49.43138 | -115.74371 | 34966 ft | 491 kts | 79° |
| 2026-05-08 04:09 | 49.43519 | -115.63903 | 34967 ft | 491 kts | 79° |
| 2026-05-08 04:10 | 49.43888 | -115.53437 | 34970 ft | 490 kts | 79° |
| 2026-05-08 04:10 | 49.44255 | -115.42989 | 34977 ft | 490 kts | 79° |
| 2026-05-08 04:11 | 49.44608 | -115.32533 | 34978 ft | 490 kts | 80° |
| 2026-05-08 04:11 | 49.44944 | -115.22155 | 34982 ft | 489 kts | 80° |
| 2026-05-08 04:12 | 49.45273 | -115.11713 | 34989 ft | 489 kts | 80° |
| 2026-05-08 04:12 | 49.45593 | -115.01275 | 35001 ft | 488 kts | 80° |
| 2026-05-08 04:13 | 49.45905 | -114.90860 | 35000 ft | 487 kts | 80° |
| 2026-05-08 04:13 | 49.46208 | -114.80446 | 35017 ft | 487 kts | 80° |
| 2026-05-08 04:14 | 49.46508 | -114.70039 | 35012 ft | 487 kts | 80° |
| 2026-05-08 04:14 | 49.46789 | -114.59641 | 35021 ft | 487 kts | 80° |
| 2026-05-08 04:15 | 49.47061 | -114.49263 | 35000 ft | 486 kts | 80° |
| 2026-05-08 04:15 | 49.47329 | -114.38877 | 35006 ft | 486 kts | 80° |
| 2026-05-08 04:16 | 49.47583 | -114.28487 | 35016 ft | 486 kts | 80° |
| 2026-05-08 04:16 | 49.47825 | -114.18107 | 35020 ft | 486 kts | 80° |
| 2026-05-08 04:17 | 49.48057 | -114.07730 | 35020 ft | 485 kts | 80° |
| 2026-05-08 04:17 | 49.48283 | -113.97356 | 35025 ft | 485 kts | 80° |
| 2026-05-08 04:18 | 49.48508 | -113.86992 | 35024 ft | 485 kts | 80° |
| 2026-05-08 04:18 | 49.48717 | -113.76625 | 35026 ft | 485 kts | 81° |
| 2026-05-08 04:19 | 49.48917 | -113.66259 | 35024 ft | 485 kts | 81° |
| 2026-05-08 04:19 | 49.49108 | -113.55897 | 35020 ft | 485 kts | 81° |
| 2026-05-08 04:20 | 49.49288 | -113.45536 | 35012 ft | 485 kts | 81° |
| 2026-05-08 04:20 | 49.49462 | -113.35178 | 35013 ft | 485 kts | 81° |
| 2026-05-08 04:21 | 49.49595 | -113.26493 | 35007 ft | 485 kts | 81° |
| 2026-05-08 04:21 | 49.49747 | -113.16200 | 35003 ft | 485 kts | 81° |
| 2026-05-08 04:22 | 49.49896 | -113.05837 | 34997 ft | 485 kts | 81° |
| 2026-05-08 04:22 | 49.50032 | -112.95473 | 34997 ft | 484 kts | 81° |
| 2026-05-08 04:23 | 49.50156 | -112.85112 | 34993 ft | 484 kts | 81° |
| 2026-05-08 04:23 | 49.50270 | -112.74751 | 34998 ft | 484 kts | 81° |
| 2026-05-08 04:24 | 49.50377 | -112.64407 | 34996 ft | 483 kts | 81° |
| 2026-05-08 04:24 | 49.50479 | -112.54073 | 35002 ft | 483 kts | 81° |
| 2026-05-08 04:25 | 49.50572 | -112.43751 | 35000 ft | 482 kts | 81° |
| 2026-05-08 04:25 | 49.50648 | -112.33432 | 34996 ft | 482 kts | 81° |
| 2026-05-08 04:26 | 49.50713 | -112.23126 | 34991 ft | 482 kts | 81° |
| 2026-05-08 04:26 | 49.50777 | -112.12830 | 34988 ft | 481 kts | 82° |
| 2026-05-08 04:27 | 49.50830 | -112.02544 | 34988 ft | 480 kts | 82° |
| 2026-05-08 04:27 | 49.50875 | -111.92272 | 34988 ft | 480 kts | 82° |
| 2026-05-08 04:28 | 49.50905 | -111.82007 | 34982 ft | 480 kts | 82° |
| 2026-05-08 04:28 | 49.50926 | -111.71755 | 34978 ft | 479 kts | 82° |
| 2026-05-08 04:29 | 49.50948 | -111.61519 | 34977 ft | 478 kts | 82° |
| 2026-05-08 04:29 | 49.50957 | -111.51283 | 34978 ft | 478 kts | 82° |
| 2026-05-08 04:30 | 49.50956 | -111.41049 | 34977 ft | 478 kts | 83° |
| 2026-05-08 04:30 | 49.50935 | -111.30826 | 34974 ft | 478 kts | 83° |
| 2026-05-08 04:31 | 49.50916 | -111.20623 | 34970 ft | 477 kts | 83° |
| 2026-05-08 04:31 | 49.50891 | -111.10426 | 34972 ft | 476 kts | 83° |
| 2026-05-08 04:32 | 49.50858 | -111.00241 | 34971 ft | 476 kts | 83° |
| 2026-05-08 04:32 | 49.50806 | -110.90065 | 34975 ft | 475 kts | 84° |
| 2026-05-08 04:33 | 49.50747 | -110.79902 | 34972 ft | 475 kts | 84° |
| 2026-05-08 04:33 | 49.50688 | -110.69745 | 34973 ft | 474 kts | 84° |
| 2026-05-08 04:34 | 49.50621 | -110.59602 | 34972 ft | 474 kts | 84° |
| 2026-05-08 04:34 | 49.50539 | -110.49458 | 34974 ft | 474 kts | 85° |
| 2026-05-08 04:35 | 49.50446 | -110.39348 | 34973 ft | 472 kts | 85° |
| 2026-05-08 04:35 | 49.50345 | -110.29262 | 34972 ft | 472 kts | 85° |
| 2026-05-08 04:36 | 49.50238 | -110.19175 | 34965 ft | 471 kts | 85° |
| 2026-05-08 04:36 | 49.50122 | -110.09101 | 34969 ft | 471 kts | 86° |
| 2026-05-08 04:37 | 49.50005 | -109.99026 | 34973 ft | 471 kts | 86° |
| 2026-05-08 04:37 | 49.49912 | -109.88965 | 34973 ft | 470 kts | 86° |
| 2026-05-08 04:38 | 49.49845 | -109.78912 | 34969 ft | 470 kts | 86° |
| 2026-05-08 04:38 | 49.49771 | -109.68868 | 34969 ft | 470 kts | 86° |
| 2026-05-08 04:39 | 49.49673 | -109.58826 | 34961 ft | 469 kts | 86° |
| 2026-05-08 04:39 | 49.49564 | -109.48795 | 34968 ft | 469 kts | 86° |
| 2026-05-08 04:40 | 49.49449 | -109.38755 | 34963 ft | 469 kts | 86° |
| 2026-05-08 04:40 | 49.49323 | -109.28728 | 34966 ft | 469 kts | 87° |
| 2026-05-08 04:41 | 49.49189 | -109.18699 | 34965 ft | 469 kts | 87° |
| 2026-05-08 04:41 | 49.49049 | -109.08671 | 34960 ft | 469 kts | 87° |
| 2026-05-08 04:42 | 49.48903 | -108.98649 | 34960 ft | 469 kts | 87° |
| 2026-05-08 04:42 | 49.48744 | -108.88622 | 34957 ft | 469 kts | 87° |
| 2026-05-08 04:43 | 49.48575 | -108.78604 | 34956 ft | 469 kts | 87° |
| 2026-05-08 04:43 | 49.48398 | -108.68582 | 34949 ft | 469 kts | 87° |
| 2026-05-08 04:44 | 49.48210 | -108.58556 | 34950 ft | 469 kts | 87° |
| 2026-05-08 04:44 | 49.48014 | -108.48533 | 34944 ft | 469 kts | 87° |
| 2026-05-08 04:45 | 49.47817 | -108.38512 | 34937 ft | 469 kts | 87° |
| 2026-05-08 04:45 | 49.47610 | -108.28492 | 34936 ft | 469 kts | 87° |
| 2026-05-08 04:46 | 49.47399 | -108.18475 | 34936 ft | 469 kts | 87° |
| 2026-05-08 04:46 | 49.47174 | -108.08449 | 34933 ft | 469 kts | 87° |
| 2026-05-08 04:47 | 49.46931 | -107.98428 | 34933 ft | 469 kts | 87° |
| 2026-05-08 04:47 | 49.46681 | -107.88402 | 34927 ft | 469 kts | 87° |
| 2026-05-08 04:48 | 49.46430 | -107.78370 | 34926 ft | 470 kts | 87° |
| 2026-05-08 04:48 | 49.46169 | -107.68340 | 34922 ft | 470 kts | 87° |
| 2026-05-08 04:49 | 49.45900 | -107.58300 | 34923 ft | 470 kts | 87° |
| 2026-05-08 04:49 | 49.45623 | -107.48264 | 34916 ft | 470 kts | 87° |
| 2026-05-08 04:50 | 49.45333 | -107.38226 | 34915 ft | 470 kts | 87° |
| 2026-05-08 04:50 | 49.45036 | -107.28187 | 34908 ft | 470 kts | 87° |
| 2026-05-08 04:51 | 49.44736 | -107.18155 | 34902 ft | 470 kts | 87° |
| 2026-05-08 04:51 | 49.44420 | -107.08114 | 34901 ft | 470 kts | 87° |
| 2026-05-08 04:52 | 49.44090 | -106.98078 | 34899 ft | 470 kts | 87° |
| 2026-05-08 04:52 | 49.43761 | -106.88104 | 34896 ft | 470 kts | 87° |
| 2026-05-08 04:53 | 49.43423 | -106.77997 | 34897 ft | 471 kts | 87° |
| 2026-05-08 04:53 | 49.43079 | -106.68027 | 34890 ft | 471 kts | 87° |
| 2026-05-08 04:54 | 49.42718 | -106.57988 | 34892 ft | 471 kts | 87° |
| 2026-05-08 04:54 | 49.42349 | -106.47947 | 34896 ft | 471 kts | 87° |
| 2026-05-08 04:55 | 49.41976 | -106.37906 | 34898 ft | 471 kts | 87° |
| 2026-05-08 04:55 | 49.41592 | -106.27862 | 34897 ft | 471 kts | 87° |
| 2026-05-08 04:56 | 49.41195 | -106.17820 | 34899 ft | 471 kts | 87° |
| 2026-05-08 04:56 | 49.40789 | -106.07769 | 34898 ft | 472 kts | 86° |
| 2026-05-08 04:57 | 49.40381 | -105.97722 | 34897 ft | 472 kts | 86° |
| 2026-05-08 04:57 | 49.39963 | -105.87677 | 34894 ft | 472 kts | 86° |
| 2026-05-08 04:58 | 49.39531 | -105.77624 | 34892 ft | 472 kts | 86° |
| 2026-05-08 04:58 | 49.39094 | -105.67573 | 34893 ft | 472 kts | 86° |
| 2026-05-08 04:59 | 49.38653 | -105.57514 | 34895 ft | 472 kts | 86° |
| 2026-05-08 04:59 | 49.38205 | -105.47455 | 34902 ft | 473 kts | 86° |
| 2026-05-08 05:00 | 49.37736 | -105.37391 | 34906 ft | 473 kts | 86° |
| 2026-05-08 05:00 | 49.37255 | -105.27325 | 34895 ft | 474 kts | 86° |
| 2026-05-08 05:01 | 49.36775 | -105.17253 | 34902 ft | 473 kts | 86° |
| 2026-05-08 05:01 | 49.36283 | -105.07189 | 34914 ft | 473 kts | 86° |
| 2026-05-08 05:02 | 49.35786 | -104.97123 | 34911 ft | 473 kts | 86° |
| 2026-05-08 05:02 | 49.35277 | -104.87055 | 34911 ft | 474 kts | 86° |
| 2026-05-08 05:03 | 49.34759 | -104.76988 | 34911 ft | 473 kts | 86° |
| 2026-05-08 05:03 | 49.34321 | -104.68623 | 34912 ft | 473 kts | 86° |
| 2026-05-08 05:04 | 49.33790 | -104.58561 | 34914 ft | 474 kts | 86° |
| 2026-05-08 05:04 | 49.33246 | -104.48493 | 34914 ft | 474 kts | 86° |
| 2026-05-08 05:05 | 49.32704 | -104.38429 | 34915 ft | 474 kts | 86° |
| 2026-05-08 05:05 | 49.32140 | -104.28359 | 34917 ft | 474 kts | 86° |
| 2026-05-08 05:06 | 49.31558 | -104.18291 | 34918 ft | 474 kts | 86° |
| 2026-05-08 05:06 | 49.30983 | -104.08229 | 34920 ft | 474 kts | 86° |
| 2026-05-08 05:07 | 49.30400 | -103.98164 | 34918 ft | 474 kts | 86° |
| 2026-05-08 05:07 | 49.29813 | -103.88099 | 34922 ft | 474 kts | 86° |
| 2026-05-08 05:08 | 49.29211 | -103.78037 | 34920 ft | 475 kts | 86° |
| 2026-05-08 05:08 | 49.28595 | -103.67969 | 34907 ft | 475 kts | 86° |
| 2026-05-08 05:09 | 49.27972 | -103.57903 | 34920 ft | 475 kts | 87° |
| 2026-05-08 05:09 | 49.27336 | -103.47837 | 34916 ft | 475 kts | 87° |
| 2026-05-08 05:10 | 49.26377 | -103.32732 | 34900 ft | 475 kts | 87° |
| 2026-05-08 05:11 | 49.25725 | -103.22670 | 34885 ft | 475 kts | 87° |
| 2026-05-08 05:11 | 49.25055 | -103.12604 | 34873 ft | 475 kts | 87° |
| 2026-05-08 05:12 | 49.24385 | -103.02541 | 34869 ft | 475 kts | 87° |
| 2026-05-08 05:12 | 49.23711 | -102.92474 | 34870 ft | 475 kts | 88° |
| 2026-05-08 05:13 | 49.23016 | -102.82413 | 34870 ft | 476 kts | 88° |
| 2026-05-08 05:13 | 49.22309 | -102.72351 | 34881 ft | 476 kts | 88° |
| 2026-05-08 05:14 | 49.21603 | -102.62297 | 34889 ft | 475 kts | 88° |
| 2026-05-08 05:14 | 49.20896 | -102.52246 | 34894 ft | 476 kts | 88° |
| 2026-05-08 05:15 | 49.20165 | -102.42185 | 34901 ft | 476 kts | 88° |
| 2026-05-08 05:15 | 49.19432 | -102.32203 | 34902 ft | 476 kts | 88° |
| 2026-05-08 05:16 | 49.18688 | -102.22094 | 34903 ft | 475 kts | 88° |
| 2026-05-08 05:16 | 49.17945 | -102.12056 | 34902 ft | 475 kts | 89° |
| 2026-05-08 05:17 | 49.17195 | -102.02091 | 34901 ft | 475 kts | 89° |
| 2026-05-08 05:17 | 49.16424 | -101.92068 | 34907 ft | 475 kts | 89° |
| 2026-05-08 05:18 | 49.15642 | -101.82049 | 34903 ft | 475 kts | 89° |
| 2026-05-08 05:18 | 49.14852 | -101.72037 | 34901 ft | 475 kts | 89° |
| 2026-05-08 05:19 | 49.14057 | -101.62025 | 34900 ft | 475 kts | 89° |
| 2026-05-08 05:19 | 49.13259 | -101.52014 | 34900 ft | 475 kts | 90° |
| 2026-05-08 05:20 | 49.12456 | -101.42008 | 34898 ft | 475 kts | 90° |
| 2026-05-08 05:20 | 49.11640 | -101.32008 | 34898 ft | 475 kts | 90° |
| 2026-05-08 05:21 | 49.10809 | -101.22004 | 34898 ft | 475 kts | 90° |
| 2026-05-08 05:21 | 49.09974 | -101.11996 | 34897 ft | 475 kts | 90° |
| 2026-05-08 05:22 | 49.09134 | -101.01997 | 34897 ft | 475 kts | 91° |
| 2026-05-08 05:22 | 49.08284 | -100.91991 | 34896 ft | 476 kts | 91° |
| 2026-05-08 05:23 | 49.07420 | -100.81991 | 34899 ft | 476 kts | 91° |
| 2026-05-08 05:23 | 49.06538 | -100.71989 | 34901 ft | 476 kts | 91° |
| 2026-05-08 05:24 | 49.05657 | -100.61995 | 34899 ft | 475 kts | 91° |
| 2026-05-08 05:24 | 49.04769 | -100.52013 | 34902 ft | 475 kts | 92° |
| 2026-05-08 05:25 | 49.03869 | -100.42035 | 34905 ft | 475 kts | 92° |
| 2026-05-08 05:25 | 49.02976 | -100.32065 | 34909 ft | 475 kts | 92° |
| 2026-05-08 05:26 | 49.02075 | -100.22101 | 34895 ft | 475 kts | 92° |
| 2026-05-08 05:26 | 49.01154 | -100.12146 | 34907 ft | 475 kts | 93° |
| 2026-05-08 05:27 | 49.00212 | -100.02182 | 34902 ft | 475 kts | 93° |
| 2026-05-08 05:27 | 48.99801 | -99.92226 | 34898 ft | 470 kts | 86° |
| 2026-05-08 05:28 | 48.99561 | -99.82270 | 34903 ft | 471 kts | 87° |
| 2026-05-08 05:28 | 48.99306 | -99.72311 | 34907 ft | 471 kts | 87° |
| 2026-05-08 05:29 | 48.99031 | -99.62348 | 34906 ft | 471 kts | 87° |
| 2026-05-08 05:29 | 48.98761 | -99.52380 | 34908 ft | 471 kts | 87° |
| 2026-05-08 05:30 | 48.98477 | -99.42411 | 34911 ft | 471 kts | 88° |
| 2026-05-08 05:30 | 48.98179 | -99.32441 | 34913 ft | 472 kts | 88° |
| 2026-05-08 05:31 | 48.97871 | -99.22466 | 34913 ft | 472 kts | 88° |
| 2026-05-08 05:31 | 48.97558 | -99.12497 | 34915 ft | 471 kts | 88° |
| 2026-05-08 05:32 | 48.97238 | -99.02527 | 34907 ft | 472 kts | 88° |
| 2026-05-08 05:32 | 48.96902 | -98.92566 | 34911 ft | 471 kts | 89° |
| 2026-05-08 05:33 | 48.96559 | -98.82605 | 34910 ft | 471 kts | 89° |
| 2026-05-08 05:33 | 48.96214 | -98.72597 | 34890 ft | 476 kts | 90° |
| 2026-05-08 05:34 | 48.95856 | -98.62524 | 34885 ft | 477 kts | 90° |
| 2026-05-08 05:34 | 48.95482 | -98.52451 | 34883 ft | 477 kts | 90° |
| 2026-05-08 05:35 | 48.95110 | -98.42379 | 34882 ft | 477 kts | 90° |
| 2026-05-08 05:35 | 48.94732 | -98.32302 | 34886 ft | 477 kts | 90° |
| 2026-05-08 05:36 | 48.94344 | -98.22220 | 34887 ft | 477 kts | 91° |
| 2026-05-08 05:36 | 48.93933 | -98.12136 | 34888 ft | 478 kts | 91° |
| 2026-05-08 05:37 | 48.93509 | -98.02047 | 34888 ft | 478 kts | 91° |
| 2026-05-08 05:37 | 48.93082 | -97.91950 | 34882 ft | 479 kts | 91° |
| 2026-05-08 05:38 | 48.92645 | -97.81847 | 34869 ft | 479 kts | 91° |
| 2026-05-08 05:38 | 48.92213 | -97.71744 | 34866 ft | 479 kts | 91° |
| 2026-05-08 05:39 | 48.91762 | -97.61633 | 34881 ft | 479 kts | 91° |
| 2026-05-08 05:39 | 48.91293 | -97.51526 | 34868 ft | 479 kts | 91° |
| 2026-05-08 05:40 | 48.90823 | -97.41419 | 34880 ft | 479 kts | 91° |
| 2026-05-08 05:40 | 48.90348 | -97.31306 | 34872 ft | 480 kts | 92° |
| 2026-05-08 05:41 | 48.89870 | -97.21200 | 34867 ft | 479 kts | 92° |
| 2026-05-08 05:41 | 48.89376 | -97.11097 | 34857 ft | 479 kts | 92° |
| 2026-05-08 05:42 | 48.88870 | -97.01000 | 34856 ft | 479 kts | 92° |
| 2026-05-08 05:42 | 48.88355 | -96.90913 | 34851 ft | 479 kts | 92° |
| 2026-05-08 05:43 | 48.87831 | -96.80826 | 34864 ft | 479 kts | 92° |
| 2026-05-08 05:43 | 48.87316 | -96.70741 | 34863 ft | 479 kts | 92° |
| 2026-05-08 05:44 | 48.86790 | -96.60665 | 34871 ft | 479 kts | 92° |
| 2026-05-08 05:44 | 48.86236 | -96.50593 | 34880 ft | 478 kts | 92° |
| 2026-05-08 05:45 | 48.85680 | -96.40523 | 34884 ft | 478 kts | 92° |
| 2026-05-08 05:45 | 48.85121 | -96.30469 | 34886 ft | 478 kts | 93° |
| 2026-05-08 05:46 | 48.84644 | -96.22102 | 34886 ft | 478 kts | 93° |
| 2026-05-08 05:46 | 48.84059 | -96.12045 | 34875 ft | 478 kts | 93° |
| 2026-05-08 05:47 | 48.83470 | -96.01999 | 34868 ft | 478 kts | 93° |
| 2026-05-08 05:47 | 48.82875 | -95.91956 | 34860 ft | 478 kts | 93° |
| 2026-05-08 05:48 | 48.82270 | -95.81920 | 34853 ft | 478 kts | 93° |
| 2026-05-08 05:48 | 48.81658 | -95.71889 | 34853 ft | 477 kts | 93° |
| 2026-05-08 05:49 | 48.81037 | -95.61858 | 34853 ft | 477 kts | 94° |
| 2026-05-08 05:49 | 48.80407 | -95.51837 | 34857 ft | 477 kts | 94° |
| 2026-05-08 05:50 | 48.79769 | -95.41820 | 34859 ft | 477 kts | 94° |
| 2026-05-08 05:50 | 48.79122 | -95.31808 | 34858 ft | 477 kts | 94° |
| 2026-05-08 05:51 | 48.78464 | -95.21790 | 34863 ft | 477 kts | 94° |
| 2026-05-08 05:51 | 48.77800 | -95.11779 | 34869 ft | 478 kts | 94° |
| 2026-05-08 05:52 | 48.77121 | -95.01756 | 34876 ft | 478 kts | 94° |
| 2026-05-08 05:52 | 48.76437 | -94.91737 | 34862 ft | 478 kts | 94° |
| 2026-05-08 05:53 | 48.75751 | -94.81785 | 34853 ft | 478 kts | 94° |
| 2026-05-08 05:53 | 48.75040 | -94.71756 | 34848 ft | 479 kts | 94° |
| 2026-05-08 05:54 | 48.74320 | -94.61727 | 34842 ft | 479 kts | 94° |
| 2026-05-08 05:54 | 48.73609 | -94.51697 | 34843 ft | 479 kts | 94° |
| 2026-05-08 05:55 | 48.72893 | -94.41656 | 34852 ft | 479 kts | 94° |
| 2026-05-08 05:55 | 48.72154 | -94.31618 | 34853 ft | 480 kts | 94° |
| 2026-05-08 05:56 | 48.71399 | -94.21595 | 34866 ft | 480 kts | 94° |
| 2026-05-08 05:56 | 48.70638 | -94.11546 | 34872 ft | 480 kts | 94° |
| 2026-05-08 05:57 | 48.69874 | -94.01510 | 34878 ft | 480 kts | 94° |
| 2026-05-08 05:57 | 48.69100 | -93.91477 | 34875 ft | 480 kts | 94° |
| 2026-05-08 05:58 | 48.68317 | -93.81438 | 34865 ft | 480 kts | 94° |
| 2026-05-08 05:58 | 48.67527 | -93.71403 | 34852 ft | 481 kts | 94° |
| 2026-05-08 05:59 | 48.66733 | -93.61360 | 34846 ft | 481 kts | 94° |
| 2026-05-08 05:59 | 48.65924 | -93.51324 | 34838 ft | 481 kts | 95° |
| 2026-05-08 06:00 | 48.65100 | -93.41278 | 34834 ft | 481 kts | 95° |
| 2026-05-08 06:00 | 48.64265 | -93.31232 | 34835 ft | 482 kts | 95° |
| 2026-05-08 06:01 | 48.63425 | -93.21184 | 34838 ft | 482 kts | 95° |
| 2026-05-08 06:01 | 48.62585 | -93.11133 | 34840 ft | 482 kts | 95° |
| 2026-05-08 06:02 | 48.61729 | -93.01085 | 34859 ft | 482 kts | 95° |
| 2026-05-08 06:02 | 48.60862 | -92.91037 | 34865 ft | 482 kts | 95° |
| 2026-05-08 06:03 | 48.59986 | -92.80993 | 34871 ft | 482 kts | 95° |
| 2026-05-08 06:03 | 48.59101 | -92.70953 | 34873 ft | 482 kts | 95° |
| 2026-05-08 06:04 | 48.58213 | -92.60908 | 34871 ft | 483 kts | 95° |
| 2026-05-08 06:04 | 48.57312 | -92.50857 | 34870 ft | 483 kts | 95° |
| 2026-05-08 06:05 | 48.56408 | -92.40815 | 34868 ft | 483 kts | 95° |
| 2026-05-08 06:05 | 48.55495 | -92.30762 | 34877 ft | 483 kts | 95° |
| 2026-05-08 06:06 | 48.54567 | -92.20718 | 34884 ft | 483 kts | 95° |
| 2026-05-08 06:06 | 48.53632 | -92.10729 | 34882 ft | 484 kts | 95° |
| 2026-05-08 06:07 | 48.52678 | -92.00621 | 34879 ft | 484 kts | 95° |
| 2026-05-08 06:07 | 48.51739 | -91.90630 | 34886 ft | 484 kts | 95° |
| 2026-05-08 06:08 | 48.50779 | -91.80575 | 34893 ft | 484 kts | 95° |
| 2026-05-08 06:08 | 48.49803 | -91.70525 | 34892 ft | 484 kts | 95° |
| 2026-05-08 06:09 | 48.48811 | -91.60475 | 34891 ft | 484 kts | 96° |
| 2026-05-08 06:09 | 48.47816 | -91.50440 | 34888 ft | 484 kts | 96° |
| 2026-05-08 06:10 | 48.46823 | -91.40397 | 34890 ft | 484 kts | 96° |
| 2026-05-08 06:10 | 48.45814 | -91.30360 | 34891 ft | 485 kts | 96° |
| 2026-05-08 06:11 | 48.44788 | -91.20329 | 34889 ft | 485 kts | 96° |
| 2026-05-08 06:11 | 48.43756 | -91.10293 | 34895 ft | 485 kts | 96° |
| 2026-05-08 06:12 | 48.42723 | -91.00269 | 34904 ft | 485 kts | 96° |
| 2026-05-08 06:12 | 48.41680 | -90.90235 | 34903 ft | 485 kts | 96° |
| 2026-05-08 06:13 | 48.40621 | -90.80203 | 34908 ft | 485 kts | 96° |
| 2026-05-08 06:13 | 48.39559 | -90.70172 | 34912 ft | 485 kts | 96° |
| 2026-05-08 06:14 | 48.38489 | -90.60139 | 34908 ft | 486 kts | 96° |
| 2026-05-08 06:14 | 48.37404 | -90.50109 | 34910 ft | 486 kts | 96° |
| 2026-05-08 06:15 | 48.36311 | -90.40076 | 34909 ft | 486 kts | 96° |
| 2026-05-08 06:15 | 48.35216 | -90.30044 | 34916 ft | 486 kts | 96° |
| 2026-05-08 06:16 | 48.34113 | -90.20005 | 34920 ft | 487 kts | 97° |
| 2026-05-08 06:16 | 48.32994 | -90.09968 | 34925 ft | 487 kts | 97° |
| 2026-05-08 06:17 | 48.31296 | -89.94913 | 34916 ft | 487 kts | 97° |
| 2026-05-08 06:17 | 48.30393 | -89.87026 | 34919 ft | 488 kts | 97° |
| 2026-05-08 06:18 | 48.29238 | -89.76990 | 34915 ft | 488 kts | 97° |
| 2026-05-08 06:18 | 48.28090 | -89.66954 | 34911 ft | 488 kts | 97° |
| 2026-05-08 06:19 | 48.26928 | -89.56918 | 34904 ft | 488 kts | 97° |
| 2026-05-08 06:19 | 48.25736 | -89.46889 | 34897 ft | 489 kts | 99° |
| 2026-05-08 06:20 | 48.23544 | -89.37222 | 34889 ft | 492 kts | 112° |
| 2026-05-08 06:20 | 48.20836 | -89.27790 | 34892 ft | 492 kts | 112° |
| 2026-05-08 06:21 | 48.18131 | -89.18358 | 34892 ft | 493 kts | 112° |
| 2026-05-08 06:21 | 48.15435 | -89.08923 | 34895 ft | 493 kts | 112° |
| 2026-05-08 06:22 | 48.12725 | -88.99493 | 34897 ft | 493 kts | 112° |
| 2026-05-08 06:22 | 48.09993 | -88.90072 | 34896 ft | 494 kts | 112° |
| 2026-05-08 06:23 | 48.07252 | -88.80660 | 34898 ft | 494 kts | 112° |
| 2026-05-08 06:23 | 48.04512 | -88.71234 | 34893 ft | 494 kts | 112° |
| 2026-05-08 06:24 | 48.01761 | -88.61815 | 34890 ft | 495 kts | 112° |
| 2026-05-08 06:24 | 47.99011 | -88.52468 | 34889 ft | 495 kts | 112° |
| 2026-05-08 06:25 | 47.96216 | -88.42998 | 34888 ft | 495 kts | 112° |
| 2026-05-08 06:25 | 47.93450 | -88.33667 | 34886 ft | 495 kts | 112° |
| 2026-05-08 06:26 | 47.90667 | -88.24272 | 34892 ft | 495 kts | 112° |
| 2026-05-08 06:26 | 47.87875 | -88.14880 | 34892 ft | 496 kts | 112° |
| 2026-05-08 06:27 | 47.85058 | -88.05498 | 34898 ft | 496 kts | 112° |
| 2026-05-08 06:27 | 47.82241 | -87.96128 | 34903 ft | 496 kts | 112° |
| 2026-05-08 06:28 | 47.79420 | -87.86769 | 34904 ft | 496 kts | 113° |
| 2026-05-08 06:28 | 47.76590 | -87.77417 | 34901 ft | 496 kts | 113° |
| 2026-05-08 06:29 | 47.73745 | -87.68070 | 34899 ft | 496 kts | 113° |
| 2026-05-08 06:29 | 47.70893 | -87.58746 | 34892 ft | 496 kts | 113° |
| 2026-05-08 06:30 | 47.68035 | -87.49421 | 34891 ft | 497 kts | 113° |
| 2026-05-08 06:30 | 47.65175 | -87.40095 | 34894 ft | 496 kts | 113° |
| 2026-05-08 06:31 | 47.62773 | -87.32298 | 34888 ft | 497 kts | 113° |
| 2026-05-08 06:31 | 47.59902 | -87.22985 | 34874 ft | 497 kts | 113° |
| 2026-05-08 06:32 | 47.57017 | -87.13685 | 34885 ft | 497 kts | 113° |
| 2026-05-08 06:32 | 47.54108 | -87.04397 | 34896 ft | 497 kts | 114° |
| 2026-05-08 06:33 | 47.51197 | -86.95127 | 34884 ft | 497 kts | 113° |
| 2026-05-08 06:33 | 47.48288 | -86.85858 | 34884 ft | 497 kts | 114° |
| 2026-05-08 06:34 | 47.45363 | -86.76600 | 34889 ft | 497 kts | 114° |
| 2026-05-08 06:34 | 47.42437 | -86.67361 | 34883 ft | 497 kts | 114° |
| 2026-05-08 06:35 | 47.39506 | -86.58135 | 34887 ft | 496 kts | 114° |
| 2026-05-08 06:35 | 47.36573 | -86.48914 | 34886 ft | 496 kts | 114° |
| 2026-05-08 06:36 | 47.33632 | -86.39715 | 34884 ft | 496 kts | 114° |
| 2026-05-08 06:36 | 47.30699 | -86.30597 | 34888 ft | 496 kts | 114° |
| 2026-05-08 06:37 | 47.27740 | -86.21423 | 34890 ft | 496 kts | 114° |
| 2026-05-08 06:37 | 47.24779 | -86.12267 | 34895 ft | 495 kts | 114° |
| 2026-05-08 06:38 | 47.21810 | -86.03127 | 34890 ft | 495 kts | 114° |
| 2026-05-08 06:38 | 47.18838 | -85.94002 | 34901 ft | 495 kts | 114° |
| 2026-05-08 06:39 | 47.15861 | -85.84892 | 34903 ft | 494 kts | 114° |
| 2026-05-08 06:39 | 47.12879 | -85.75797 | 34896 ft | 494 kts | 115° |
| 2026-05-08 06:40 | 47.09887 | -85.66714 | 34900 ft | 494 kts | 115° |
| 2026-05-08 06:40 | 47.06898 | -85.57642 | 34898 ft | 494 kts | 115° |
| 2026-05-08 06:41 | 47.03899 | -85.48583 | 34902 ft | 494 kts | 115° |
| 2026-05-08 06:41 | 47.00890 | -85.39544 | 34908 ft | 494 kts | 115° |
| 2026-05-08 06:42 | 46.97875 | -85.30518 | 34911 ft | 493 kts | 115° |
| 2026-05-08 06:42 | 46.94859 | -85.21520 | 34907 ft | 492 kts | 115° |
| 2026-05-08 06:43 | 46.91837 | -85.12542 | 34899 ft | 492 kts | 115° |
| 2026-05-08 06:43 | 46.88814 | -85.03576 | 34902 ft | 491 kts | 115° |
| 2026-05-08 06:44 | 46.85789 | -84.94619 | 34898 ft | 491 kts | 116° |
| 2026-05-08 06:44 | 46.82757 | -84.85682 | 34903 ft | 491 kts | 116° |
| 2026-05-08 06:45 | 46.79710 | -84.76753 | 34915 ft | 491 kts | 116° |
| 2026-05-08 06:45 | 46.76661 | -84.67847 | 34921 ft | 490 kts | 116° |
| 2026-05-08 06:46 | 46.73614 | -84.58962 | 34923 ft | 490 kts | 116° |
| 2026-05-08 06:46 | 46.70558 | -84.50088 | 34923 ft | 489 kts | 116° |
| 2026-05-08 06:47 | 46.67501 | -84.41236 | 34914 ft | 489 kts | 116° |
| 2026-05-08 06:47 | 46.64439 | -84.32400 | 34907 ft | 489 kts | 116° |
| 2026-05-08 06:48 | 46.61374 | -84.23574 | 34902 ft | 489 kts | 116° |
| 2026-05-08 06:48 | 46.58301 | -84.14752 | 34899 ft | 489 kts | 117° |
| 2026-05-08 06:49 | 46.55212 | -84.05955 | 34905 ft | 489 kts | 117° |
| 2026-05-08 06:49 | 46.52119 | -83.97179 | 34913 ft | 488 kts | 117° |
| 2026-05-08 06:50 | 46.49029 | -83.88408 | 34916 ft | 488 kts | 117° |
| 2026-05-08 06:50 | 46.45937 | -83.79651 | 34915 ft | 487 kts | 117° |
| 2026-05-08 06:51 | 46.42843 | -83.70916 | 34912 ft | 487 kts | 117° |
| 2026-05-08 06:51 | 46.39593 | -83.62321 | 34914 ft | 486 kts | 126° |
| 2026-05-08 06:52 | 46.35682 | -83.54348 | 34915 ft | 486 kts | 126° |
| 2026-05-08 06:52 | 46.31770 | -83.46369 | 34922 ft | 486 kts | 126° |
| 2026-05-08 06:53 | 46.27858 | -83.38402 | 34933 ft | 485 kts | 126° |
| 2026-05-08 06:53 | 46.23945 | -83.30464 | 34929 ft | 485 kts | 126° |
| 2026-05-08 06:54 | 46.20025 | -83.22530 | 34924 ft | 485 kts | 127° |
| 2026-05-08 06:54 | 46.16129 | -83.14678 | 34918 ft | 485 kts | 127° |
| 2026-05-08 06:55 | 46.12196 | -83.06779 | 34920 ft | 485 kts | 127° |
| 2026-05-08 06:55 | 46.08260 | -82.98894 | 34922 ft | 485 kts | 127° |
| 2026-05-08 06:56 | 46.04324 | -82.91016 | 34919 ft | 484 kts | 127° |
| 2026-05-08 06:56 | 46.00390 | -82.83154 | 34918 ft | 484 kts | 127° |
| 2026-05-08 06:57 | 45.96450 | -82.75295 | 34915 ft | 484 kts | 127° |
| 2026-05-08 06:57 | 45.92500 | -82.67461 | 34917 ft | 484 kts | 127° |
| 2026-05-08 06:58 | 45.88535 | -82.59643 | 34913 ft | 484 kts | 127° |
| 2026-05-08 06:58 | 45.84568 | -82.51829 | 34911 ft | 484 kts | 127° |
| 2026-05-08 06:59 | 45.80601 | -82.44024 | 34909 ft | 484 kts | 128° |
| 2026-05-08 06:59 | 45.76631 | -82.36221 | 34913 ft | 485 kts | 128° |
| 2026-05-08 07:00 | 45.72649 | -82.28436 | 34917 ft | 484 kts | 128° |
| 2026-05-08 07:00 | 45.68663 | -82.20665 | 34914 ft | 485 kts | 128° |
| 2026-05-08 07:01 | 45.64668 | -82.12881 | 34928 ft | 485 kts | 128° |
| 2026-05-08 07:01 | 45.60489 | -82.05341 | 34941 ft | 482 kts | 138° |
| 2026-05-08 07:02 | 45.55608 | -81.98801 | 34940 ft | 481 kts | 140° |
| 2026-05-08 07:02 | 45.50731 | -81.92271 | 34943 ft | 481 kts | 139° |
| 2026-05-08 07:03 | 45.45855 | -81.85748 | 34941 ft | 481 kts | 140° |
| 2026-05-08 07:03 | 45.40973 | -81.79234 | 34939 ft | 481 kts | 140° |
| 2026-05-08 07:04 | 45.36087 | -81.72723 | 34949 ft | 481 kts | 140° |
| 2026-05-08 07:04 | 45.31200 | -81.66241 | 34940 ft | 480 kts | 140° |
| 2026-05-08 07:05 | 45.26304 | -81.59774 | 34935 ft | 480 kts | 140° |
| 2026-05-08 07:05 | 45.21411 | -81.53316 | 34929 ft | 480 kts | 140° |
| 2026-05-08 07:06 | 45.16523 | -81.46862 | 34931 ft | 480 kts | 140° |
| 2026-05-08 07:06 | 45.11620 | -81.40427 | 34931 ft | 481 kts | 140° |
| 2026-05-08 07:07 | 45.06707 | -81.34003 | 34934 ft | 481 kts | 140° |
| 2026-05-08 07:07 | 45.01799 | -81.27590 | 34929 ft | 481 kts | 140° |
| 2026-05-08 07:08 | 44.96884 | -81.21174 | 34923 ft | 481 kts | 141° |
| 2026-05-08 07:08 | 44.91939 | -81.14743 | 34939 ft | 489 kts | 141° |
| 2026-05-08 07:09 | 44.86921 | -81.08234 | 34931 ft | 490 kts | 141° |
| 2026-05-08 07:09 | 44.81899 | -81.01730 | 34935 ft | 490 kts | 141° |
| 2026-05-08 07:10 | 44.76867 | -80.95248 | 34935 ft | 490 kts | 141° |
| 2026-05-08 07:10 | 44.71833 | -80.88764 | 34932 ft | 491 kts | 141° |
| 2026-05-08 07:11 | 44.66801 | -80.82285 | 34931 ft | 491 kts | 141° |
| 2026-05-08 07:11 | 44.61758 | -80.75823 | 34929 ft | 491 kts | 141° |
| 2026-05-08 07:12 | 44.56706 | -80.69370 | 34939 ft | 491 kts | 141° |
| 2026-05-08 07:12 | 44.51654 | -80.62930 | 34941 ft | 491 kts | 141° |
| 2026-05-08 07:13 | 44.46593 | -80.56489 | 34948 ft | 492 kts | 142° |
| 2026-05-08 07:13 | 44.42346 | -80.51100 | 34951 ft | 492 kts | 142° |
| 2026-05-08 07:14 | 44.37309 | -80.44715 | 34950 ft | 492 kts | 142° |
| 2026-05-08 07:14 | 44.32223 | -80.38302 | 34953 ft | 493 kts | 142° |
| 2026-05-08 07:15 | 44.27130 | -80.31896 | 34956 ft | 493 kts | 142° |
| 2026-05-08 07:15 | 44.22038 | -80.25484 | 34966 ft | 493 kts | 142° |
| 2026-05-08 07:16 | 44.16934 | -80.19085 | 34966 ft | 493 kts | 142° |
| 2026-05-08 07:16 | 44.11831 | -80.12689 | 34962 ft | 494 kts | 142° |
| 2026-05-08 07:17 | 44.06730 | -80.06294 | 34959 ft | 494 kts | 142° |
| 2026-05-08 07:17 | 44.01582 | -79.99993 | 34951 ft | 489 kts | 149° |
| 2026-05-08 07:18 | 43.95934 | -79.94783 | 34949 ft | 487 kts | 153° |
| 2026-05-08 07:18 | 43.90194 | -79.89793 | 34940 ft | 487 kts | 154° |
| 2026-05-08 07:19 | 43.84490 | -79.84723 | 34935 ft | 490 kts | 148° |
| 2026-05-08 07:19 | 43.79258 | -79.78572 | 34925 ft | 496 kts | 141° |
| 2026-05-08 07:20 | 43.76948 | -79.75018 | 34924 ft | 502 kts | 126° |
| 2026-05-08 07:20 | 43.75487 | -79.70619 | 34933 ft | 505 kts | 104° |
| 2026-05-08 07:20 | 43.75127 | -79.65882 | 34945 ft | 488 kts | 83° |
| 2026-05-08 07:20 | 43.75881 | -79.61459 | 34941 ft | 461 kts | 60° |
| 2026-05-08 07:21 | 43.77579 | -79.57904 | 34944 ft | 428 kts | 37° |
| 2026-05-08 07:21 | 43.79889 | -79.55600 | 34945 ft | 402 kts | 20° |
| 2026-05-08 07:21 | 43.84856 | -79.51960 | 34949 ft | 404 kts | 20° |
| 2026-05-08 07:22 | 43.89825 | -79.48318 | 34954 ft | 404 kts | 20° |
| 2026-05-08 07:22 | 43.94436 | -79.43759 | 34961 ft | 420 kts | 41° |
| 2026-05-08 07:23 | 43.98441 | -79.37862 | 34960 ft | 420 kts | 41° |
| 2026-05-08 07:23 | 44.02432 | -79.31956 | 34957 ft | 419 kts | 41° |
| 2026-05-08 07:24 | 44.06742 | -79.26760 | 34959 ft | 397 kts | 13° |
| 2026-05-08 07:24 | 44.09358 | -79.25872 | 34950 ft | 383 kts | 355° |
| 2026-05-08 07:24 | 44.11995 | -79.26007 | 34958 ft | 379 kts | 342° |
| 2026-05-08 07:25 | 44.14532 | -79.26955 | 34957 ft | 377 kts | 330° |
| 2026-05-08 07:25 | 44.16808 | -79.28664 | 34953 ft | 368 kts | 317° |
| 2026-05-08 07:25 | 44.19983 | -79.33975 | 34955 ft | 355 kts | 291° |
| 2026-05-08 07:26 | 44.20737 | -79.37236 | 34956 ft | 353 kts | 279° |
| 2026-05-08 07:26 | 44.20906 | -79.40638 | 34956 ft | 354 kts | 267° |
| 2026-05-08 07:26 | 44.20479 | -79.44018 | 34961 ft | 356 kts | 254° |
| 2026-05-08 07:26 | 44.19461 | -79.47183 | 34953 ft | 362 kts | 242° |
| 2026-05-08 07:27 | 44.17965 | -79.50023 | 34948 ft | 366 kts | 236° |
| 2026-05-08 07:27 | 44.14524 | -79.55293 | 34956 ft | 369 kts | 231° |
| 2026-05-08 07:28 | 44.10914 | -79.60362 | 34957 ft | 368 kts | 231° |
| 2026-05-08 07:28 | 44.09035 | -79.62807 | 34819 ft | 375 kts | 222° |
| 2026-05-08 07:28 | 44.06753 | -79.64608 | 34449 ft | 382 kts | 208° |
| 2026-05-08 07:28 | 44.04159 | -79.65536 | 34064 ft | 391 kts | 193° |
| 2026-05-08 07:29 | 44.01412 | -79.65490 | 33620 ft | 402 kts | 178° |
| 2026-05-08 07:29 | 43.98705 | -79.64387 | 33154 ft | 412 kts | 161° |
| 2026-05-08 07:29 | 43.96270 | -79.62228 | 32699 ft | 422 kts | 143° |
| 2026-05-08 07:29 | 43.94354 | -79.59121 | 32265 ft | 428 kts | 124° |
| 2026-05-08 07:30 | 43.93160 | -79.55343 | 31813 ft | 430 kts | 104° |
| 2026-05-08 07:30 | 43.92812 | -79.51249 | 31384 ft | 426 kts | 85° |
| 2026-05-08 07:30 | 43.93318 | -79.47254 | 30921 ft | 418 kts | 66° |
| 2026-05-08 07:30 | 43.94596 | -79.43702 | 30451 ft | 407 kts | 48° |
| 2026-05-08 07:31 | 43.96337 | -79.40649 | 29959 ft | 402 kts | 43° |
| 2026-05-08 07:31 | 43.98199 | -79.37770 | 29381 ft | 399 kts | 40° |
| 2026-05-08 07:31 | 44.00120 | -79.35006 | 28793 ft | 397 kts | 39° |
| 2026-05-08 07:31 | 44.02063 | -79.32282 | 28248 ft | 396 kts | 39° |
| 2026-05-08 07:32 | 44.04016 | -79.29594 | 27698 ft | 392 kts | 34° |
| 2026-05-08 07:32 | 44.06250 | -79.27571 | 27163 ft | 377 kts | 17° |
| 2026-05-08 07:32 | 44.08708 | -79.26539 | 26637 ft | 363 kts | 1° |
| 2026-05-08 07:32 | 44.11177 | -79.26477 | 26120 ft | 350 kts | 345° |
| 2026-05-08 07:33 | 44.13483 | -79.27310 | 25609 ft | 338 kts | 331° |
| 2026-05-08 07:33 | 44.15490 | -79.28896 | 25112 ft | 328 kts | 317° |
| 2026-05-08 07:33 | 44.17094 | -79.31083 | 24622 ft | 320 kts | 304° |
| 2026-05-08 07:33 | 44.18235 | -79.33708 | 24133 ft | 315 kts | 291° |
| 2026-05-08 07:34 | 44.18876 | -79.36591 | 23655 ft | 311 kts | 278° |
| 2026-05-08 07:34 | 44.19009 | -79.39583 | 23108 ft | 309 kts | 266° |
| 2026-05-08 07:34 | 44.18630 | -79.42528 | 22543 ft | 310 kts | 253° |
| 2026-05-08 07:34 | 44.17752 | -79.45268 | 21993 ft | 312 kts | 241° |
| 2026-05-08 07:35 | 44.16473 | -79.47721 | 21444 ft | 314 kts | 234° |
| 2026-05-08 07:35 | 44.15033 | -79.50019 | 20906 ft | 315 kts | 231° |
| 2026-05-08 07:35 | 44.13522 | -79.52228 | 20383 ft | 315 kts | 229° |
| 2026-05-08 07:35 | 44.11983 | -79.54407 | 19867 ft | 315 kts | 229° |
| 2026-05-08 07:36 | 44.10449 | -79.56578 | 19366 ft | 315 kts | 229° |
| 2026-05-08 07:36 | 44.08923 | -79.58761 | 18865 ft | 314 kts | 230° |
| 2026-05-08 07:36 | 44.07406 | -79.60946 | 18377 ft | 314 kts | 230° |
| 2026-05-08 07:36 | 44.05892 | -79.63127 | 17828 ft | 314 kts | 230° |
| 2026-05-08 07:37 | 44.04377 | -79.65307 | 17276 ft | 313 kts | 230° |
| 2026-05-08 07:37 | 44.02863 | -79.67480 | 16731 ft | 313 kts | 230° |
| 2026-05-08 07:37 | 44.01345 | -79.69652 | 16190 ft | 313 kts | 230° |
| 2026-05-08 07:37 | 43.99832 | -79.71812 | 15665 ft | 312 kts | 230° |
| 2026-05-08 07:38 | 43.98333 | -79.73946 | 15153 ft | 312 kts | 230° |
| 2026-05-08 07:38 | 43.96818 | -79.76099 | 14644 ft | 311 kts | 230° |
| 2026-05-08 07:38 | 43.95305 | -79.78243 | 14136 ft | 311 kts | 230° |
| 2026-05-08 07:38 | 43.93793 | -79.80380 | 13635 ft | 310 kts | 230° |
| 2026-05-08 07:39 | 43.92286 | -79.82506 | 13075 ft | 309 kts | 230° |
| 2026-05-08 07:39 | 43.90784 | -79.84619 | 12529 ft | 307 kts | 230° |
| 2026-05-08 07:39 | 43.89287 | -79.86722 | 11991 ft | 305 kts | 230° |
| 2026-05-08 07:39 | 43.87800 | -79.88813 | 11455 ft | 303 kts | 230° |
| 2026-05-08 07:40 | 43.86325 | -79.90885 | 10944 ft | 301 kts | 230° |
| 2026-05-08 07:40 | 43.84859 | -79.92940 | 10427 ft | 299 kts | 230° |
| 2026-05-08 07:40 | 43.83403 | -79.94980 | 9976 ft | 295 kts | 230° |
| 2026-05-08 07:40 | 43.81975 | -79.96979 | 9602 ft | 289 kts | 230° |
| 2026-05-08 07:41 | 43.80577 | -79.98930 | 9220 ft | 283 kts | 230° |
| 2026-05-08 07:41 | 43.79205 | -80.00846 | 8834 ft | 277 kts | 230° |
| 2026-05-08 07:41 | 43.77857 | -80.02723 | 8454 ft | 272 kts | 230° |
| 2026-05-08 07:41 | 43.76535 | -80.04567 | 8085 ft | 267 kts | 230° |
| 2026-05-08 07:42 | 43.75238 | -80.06379 | 7717 ft | 263 kts | 230° |
| 2026-05-08 07:42 | 43.73964 | -80.08158 | 7352 ft | 258 kts | 230° |
| 2026-05-08 07:42 | 43.72652 | -80.09765 | 6994 ft | 248 kts | 217° |
| 2026-05-08 07:42 | 43.71061 | -80.10582 | 6635 ft | 246 kts | 193° |
| 2026-05-08 07:43 | 43.69343 | -80.10406 | 6274 ft | 253 kts | 167° |
| 2026-05-08 07:43 | 43.67807 | -80.09203 | 5897 ft | 258 kts | 142° |
| 2026-05-08 07:43 | 43.66459 | -80.07584 | 5528 ft | 256 kts | 142° |
| 2026-05-08 07:43 | 43.65116 | -80.05979 | 5160 ft | 254 kts | 142° |
| 2026-05-08 07:44 | 43.63787 | -80.04397 | 4801 ft | 252 kts | 142° |
| 2026-05-08 07:44 | 43.62463 | -80.02826 | 4435 ft | 249 kts | 142° |
| 2026-05-08 07:44 | 43.61154 | -80.01278 | 4112 ft | 245 kts | 142° |
| 2026-05-08 07:44 | 43.59882 | -79.99773 | 3898 ft | 237 kts | 142° |
| 2026-05-08 07:45 | 43.58647 | -79.98315 | 3685 ft | 230 kts | 142° |
| 2026-05-08 07:45 | 43.57448 | -79.96900 | 3478 ft | 224 kts | 142° |
| 2026-05-08 07:45 | 43.56278 | -79.95522 | 3268 ft | 219 kts | 142° |
| 2026-05-08 07:45 | 43.55132 | -79.94171 | 3093 ft | 213 kts | 141° |
| 2026-05-08 07:46 | 43.54083 | -79.92789 | 3018 ft | 208 kts | 129° |
| 2026-05-08 07:46 | 43.53391 | -79.91041 | 3025 ft | 210 kts | 108° |
| 2026-05-08 07:46 | 43.53168 | -79.89067 | 3023 ft | 209 kts | 86° |
| 2026-05-08 07:46 | 43.53455 | -79.87116 | 3021 ft | 208 kts | 65° |
| 2026-05-08 07:47 | 43.54226 | -79.85464 | 3021 ft | 204 kts | 43° |
| 2026-05-08 07:47 | 43.55211 | -79.84055 | 3035 ft | 204 kts | 43° |
| 2026-05-08 07:47 | 43.56155 | -79.82693 | 3035 ft | 194 kts | 43° |
| 2026-05-08 07:47 | 43.57085 | -79.81353 | 3015 ft | 193 kts | 43° |
| 2026-05-08 07:48 | 43.58014 | -79.80011 | 3008 ft | 193 kts | 43° |
| 2026-05-08 07:48 | 43.58942 | -79.78672 | 2982 ft | 193 kts | 43° |
| 2026-05-08 07:48 | 43.59838 | -79.77374 | 2813 ft | 181 kts | 43° |
| 2026-05-08 07:48 | 43.60677 | -79.76160 | 2598 ft | 172 kts | 42° |
| 2026-05-08 07:49 | 43.61500 | -79.74972 | 2370 ft | 171 kts | 43° |
| 2026-05-08 07:49 | 43.62320 | -79.73787 | 2138 ft | 170 kts | 43° |
| 2026-05-08 07:49 | 43.63129 | -79.72617 | 1901 ft | 165 kts | 43° |
| 2026-05-08 07:49 | 43.63880 | -79.71527 | 1686 ft | 149 kts | 43° |
| 2026-05-08 07:50 | 43.64568 | -79.70532 | 1460 ft | 140 kts | 44° |
| 2026-05-08 07:50 | 43.65235 | -79.69567 | 1254 ft | 138 kts | 45° |
| 2026-05-08 07:50 | 43.65887 | -79.68604 | 1031 ft | 136 kts | 46° |
| 2026-05-08 07:50 | 43.66537 | -79.67653 | 853 ft | 137 kts | 45° |
| 2026-05-08 07:51 | 43.67197 | -79.66707 | 694 ft | 137 kts | 44° |
| 2026-05-08 07:51 | 43.67835 | -79.65793 | 576 ft | 128 kts | 45° |
| 2026-05-08 07:51 | 43.68362 | -79.65032 | 569 ft | 87 kts | 46° |
| 2026-05-08 07:51 | 43.68625 | -79.64645 | 565 ft | 33 kts | 54° |